Time;durP1;ratioP1;P1;durP2;ratioP2;P2;SDS_P1;SDS_P2;PMS_P1;PMS_P2;Temp;Humidity;BMP_temperature;BMP_pressure;BME280_temperature;BME280_humidity;BME280_pressure;Samples;Min_cycle;Max_cycle;Signal;HPM_P1;HPM_P2
2021/11/12 00:17:10;;;;;;;61.1;71.8;;;;;;;3.7;83.7;99500;;;;
2021/11/12 00:27:09;;;;;;;61.1;71.8;;;;;;;3.7;83.8;99500;;;;
2021/11/12 00:37:13;;;;;;;61.1;71.8;;;;;;;3.7;83.9;99500;;;;
2021/11/12 00:47:19;;;;;;;60.7;76.5;;;;;;;3.7;83.9;99500;;;;
2021/11/12 00:58:09;;;;;;;60.7;76.5;;;;;;;3.7;83.6;99500;;;;
2021/11/12 01:08:09;;;;;;;60.7;76.5;;;;;;;3.7;83.4;99500;;;;
2021/11/12 01:18:09;;;;;;;55.3;63.3;;;;;;;3.6;83.3;99500;;;;
2021/11/12 01:28:09;;;;;;;55.3;63.3;;;;;;;3.7;83.3;99500;;;;
2021/11/12 01:38:09;;;;;;;55.3;63.3;;;;;;;3.7;83.2;99500;;;;
2021/11/12 01:48:19;;;;;;;52.2;59.7;;;;;;;3.9;83.2;99500;;;;
2021/11/12 01:58:26;;;;;;;52.2;59.7;;;;;;;4;83;99500;;;;
2021/11/12 02:08:09;;;;;;;52.2;59.7;;;;;;;4.2;82.8;99500;;;;
2021/11/12 02:18:13;;;;;;;51.3;63.7;;;;;;;4.2;82.6;99500;;;;
2021/11/12 02:28:11;;;;;;;51.3;63.7;;;;;;;4.3;82.4;99490;;;;
2021/11/12 02:38:09;;;;;;;51.3;63.7;;;;;;;4.5;82.3;99480;;;;
2021/11/12 02:48:09;;;;;;;51.5;59.9;;;;;;;4.7;82;99490;;;;
2021/11/12 02:58:09;;;;;;;51.5;59.9;;;;;;;4.8;81.6;99490;;;;
2021/11/12 03:09:11;;;;;;;51.5;59.9;;;;;;;5.1;81.2;99480;;;;
2021/11/12 03:19:09;;;;;;;49.6;61.4;;;;;;;5;80.3;99480;;;;
2021/11/12 03:29:23;;;;;;;49.6;61.4;;;;;;;4.9;79.9;99480;;;;
2021/11/12 04:01:47;;;;;;;63.9;71.7;;;;;;;4.8;78.8;99480;;;;
2021/11/12 05:03:25;;;;;;;69.3;79.4;;;;;;;5;79.8;99510;;;;
2021/11/12 05:13:25;;;;;;;59.4;73;;;;;;;5.1;79.7;99510;;;;
2021/11/12 05:34:23;;;;;;;59.4;73;;;;;;;5.2;79.5;99530;;;;
2021/11/12 05:43:49;;;;;;;53.6;63.1;;;;;;;5.2;80.3;99530;;;;
2021/11/12 06:03:10;;;;;;;53.6;63.1;;;;;;;5.4;80.1;99540;;;;
2021/11/12 06:13:09;;;;;;;50.5;62.3;;;;;;;5.5;80.3;99540;;;;
2021/11/12 06:23:10;;;;;;;50.5;62.3;;;;;;;5.6;80;99540;;;;
2021/11/12 06:34:10;;;;;;;50.5;62.3;;;;;;;5.7;79.6;99550;;;;
2021/11/12 06:55:09;;;;;;;51.3;57.8;;;;;;;6;78.8;99550;;;;
2021/11/12 07:05:09;;;;;;;51.3;57.8;;;;;;;6.1;79.3;99550;;;;
2021/11/12 07:16:09;;;;;;;53.3;62;;;;;;;6.3;79;99540;;;;
2021/11/12 07:27:09;;;;;;;53.3;62;;;;;;;6.6;78.8;99540;;;;
2021/11/12 07:37:11;;;;;;;53.3;62;;;;;;;6.9;78.7;99550;;;;
2021/11/12 07:47:13;;;;;;;48.6;54.4;;;;;;;6.9;76.8;99550;;;;
2021/11/12 07:57:10;;;;;;;48.6;54.4;;;;;;;6.8;77.3;99550;;;;
2021/11/12 08:07:10;;;;;;;48.6;54.4;;;;;;;6.7;77;99540;;;;
2021/11/12 08:17:18;;;;;;;70.7;80.4;;;;;;;6.8;77.4;99540;;;;
2021/11/12 08:27:29;;;;;;;70.7;80.4;;;;;;;7.1;77.7;99530;;;;
2021/11/12 08:37:16;;;;;;;70.7;80.4;;;;;;;7.4;77.4;99530;;;;
2021/11/12 08:48:12;;;;;;;59.5;74.7;;;;;;;7.8;76.5;99520;;;;
2021/11/12 08:58:10;;;;;;;59.5;74.7;;;;;;;8;73.2;99520;;;;
2021/11/12 09:08:09;;;;;;;59.5;74.7;;;;;;;8.1;73.4;99500;;;;
2021/11/12 09:18:09;;;;;;;40.2;48.2;;;;;;;8.5;72.3;99500;;;;
2021/11/12 09:28:09;;;;;;;40.2;48.2;;;;;;;8.4;71.2;99490;;;;
2021/11/12 09:38:09;;;;;;;40.2;48.2;;;;;;;8.5;70.5;99490;;;;
2021/11/12 09:48:09;;;;;;;29.5;34.7;;;;;;;8.2;71.9;99480;;;;
2021/11/12 09:58:09;;;;;;;29.5;34.7;;;;;;;8.7;71;99480;;;;
2021/11/12 10:08:09;;;;;;;29.5;34.7;;;;;;;8.6;69.5;99470;;;;
2021/11/12 10:18:10;;;;;;;28.4;33.2;;;;;;;8.5;69.8;99460;;;;
2021/11/12 10:28:09;;;;;;;28.4;33.2;;;;;;;8.4;69.8;99440;;;;
2021/11/12 10:38:09;;;;;;;28.4;33.2;;;;;;;8.8;70.8;99430;;;;
2021/11/12 10:48:09;;;;;;;28.4;35.6;;;;;;;8.8;70.3;99410;;;;
2021/11/12 10:59:09;;;;;;;28.4;35.6;;;;;;;8.9;68.2;99410;;;;
2021/11/12 11:09:09;;;;;;;28.4;35.6;;;;;;;8.7;70.1;99400;;;;
2021/11/12 11:19:11;;;;;;;27.8;35.7;;;;;;;8.8;69.5;99390;;;;
2021/11/12 11:29:09;;;;;;;27.8;35.7;;;;;;;8.6;69.4;99380;;;;
2021/11/12 11:39:10;;;;;;;27.8;35.7;;;;;;;8.9;68.6;99380;;;;
2021/11/12 11:49:09;;;;;;;28;31.6;;;;;;;8.4;69.4;99360;;;;
2021/11/12 11:59:10;;;;;;;28;31.6;;;;;;;8.7;69.5;99360;;;;
2021/11/12 12:09:10;;;;;;;28;31.6;;;;;;;8.4;69.2;99360;;;;
2021/11/12 12:20:14;;;;;;;27.4;31.9;;;;;;;8.4;70;99350;;;;
2021/11/12 12:31:31;;;;;;;27.4;31.9;;;;;;;7.8;71.7;99340;;;;
2021/11/12 12:40:41;;;;;;;30.9;37.4;;;;;;;8.1;70.8;99340;;;;
2021/11/12 13:21:29;;;;;;;47.4;62.5;;;;;;;7.8;71.5;99320;;;;
2021/11/12 13:31:09;;;;;;;47.4;62.5;;;;;;;7.7;72.1;99310;;;;
2021/11/12 13:41:09;;;;;;;34.7;38.9;;;;;;;7.6;72;99310;;;;
2021/11/12 13:51:09;;;;;;;34.7;38.9;;;;;;;7.6;72.2;99300;;;;
2021/11/12 14:01:09;;;;;;;34.7;38.9;;;;;;;7.6;72.5;99300;;;;
2021/11/12 14:11:09;;;;;;;43;50.9;;;;;;;7.6;72.8;99300;;;;
2021/11/12 14:21:15;;;;;;;43;50.9;;;;;;;7.6;72.6;99300;;;;
2021/11/12 14:31:19;;;;;;;43;50.9;;;;;;;7.3;73.5;99290;;;;
2021/11/12 14:41:53;;;;;;;38.5;46.2;;;;;;;7.2;74.1;99280;;;;
2021/11/12 14:51:12;;;;;;;38.5;46.2;;;;;;;6.9;74.9;99280;;;;
2021/11/12 15:01:09;;;;;;;38.5;46.2;;;;;;;6.7;75.2;99280;;;;
2021/11/12 15:11:09;;;;;;;40.6;47.2;;;;;;;6.6;75.7;99280;;;;
2021/11/12 15:21:14;;;;;;;40.6;47.2;;;;;;;6.4;76.1;99260;;;;
2021/11/12 15:32:14;;;;;;;40.6;47.2;;;;;;;6.6;75.9;99270;;;;
2021/11/12 15:52:11;;;;;;;48;54;;;;;;;6.5;76.3;99260;;;;
2021/11/12 16:02:32;;;;;;;48;54;;;;;;;6.2;77;99270;;;;
2021/11/12 16:12:20;;;;;;;49.1;58;;;;;;;6.2;77.1;99280;;;;
2021/11/12 16:22:30;;;;;;;49.1;58;;;;;;;6.3;77;99280;;;;
2021/11/12 16:32:11;;;;;;;49.1;58;;;;;;;6;77.8;99260;;;;
2021/11/12 16:42:26;;;;;;;49.8;57.2;;;;;;;6.1;77.7;99270;;;;
2021/11/12 16:52:18;;;;;;;49.8;57.2;;;;;;;6.2;77.8;99270;;;;
2021/11/12 17:02:25;;;;;;;49.8;57.2;;;;;;;6.2;77.7;99250;;;;
2021/11/12 17:13:20;;;;;;;55.9;68.4;;;;;;;6.1;78.2;99260;;;;
2021/11/12 17:53:44;;;;;;;50.1;60.4;;;;;;;6;79;99250;;;;
2021/11/12 18:03:14;;;;;;;50.1;60.4;;;;;;;5.9;79.2;99240;;;;
2021/11/12 18:14:29;;;;;;;57.7;69.2;;;;;;;5.9;79.1;99220;;;;
2021/11/12 18:23:37;;;;;;;57.7;69.2;;;;;;;5.9;79.2;99210;;;;
2021/11/12 21:53:09;;;;;;;49.5;66.7;;;;;;;5.9;80.1;99180;;;;
2021/11/12 22:03:09;;;;;;;49.5;66.7;;;;;;;5.8;80.6;99170;;;;
2021/11/12 22:13:09;;;;;;;51.9;63.1;;;;;;;5.7;80.9;99160;;;;
2021/11/12 22:23:09;;;;;;;51.9;63.1;;;;;;;5.7;80.8;99160;;;;
2021/11/12 22:33:09;;;;;;;51.9;63.1;;;;;;;5.9;80.6;99150;;;;
2021/11/12 22:43:09;;;;;;;52.5;70.9;;;;;;;5.7;80.8;99150;;;;
2021/11/12 22:53:09;;;;;;;52.5;70.9;;;;;;;5.7;80.8;99140;;;;
2021/11/12 23:03:09;;;;;;;52.5;70.9;;;;;;;5.6;81.1;99130;;;;
2021/11/12 23:13:09;;;;;;;49.9;59.5;;;;;;;5.7;80.8;99110;;;;
2021/11/12 23:23:09;;;;;;;49.9;59.5;;;;;;;5.7;80.7;99110;;;;
2021/11/12 23:33:09;;;;;;;49.9;59.5;;;;;;;5.6;81.1;99080;;;;
2021/11/12 23:43:09;;;;;;;52;65.9;;;;;;;5.8;80.6;99070;;;;
2021/11/12 23:53:09;;;;;;;52;65.9;;;;;;;5.6;81;99070;;;;
